^^
Datos históricos de la estación: Murcia-Puente Tocinos
Diario Informe para Enero 30, 2019 Unidades:  Ambas    Ingés   Métrico
Diario Semanal Mensual Anual
  Máxima: Mínima: Promedio:
Temperatura: 79.9 °F /  26.6 °C 63 °F /  17.2 °C 70.5 °F /  21.4 °C
Punto de rocio: 59.5 °F /  15.3 °C 54.1 °F /  12.3 °C 56.3 °F /  13.5 °C
Humedad: 75% 42.3% 62%
Velocidad viento: 10.7mph /  17.2km/h - 4.8mph /  7.8km/h
Racha viento: 21.3mph /  34.3km/h - -
Viento- - SSO
Presión: 30.1 in /  1020.4 hPa 30.1 in /  1017.5 hPa -
Precipitación: 0 in /  0.0 mm    
 
 
Tabla de datos para Enero 30, 2019
Hora Temperatura Punto de rocio Presión Viento Velocidad viento Racha viento Humedad Intensidad lluvia(por hora) Nubes
00:04 67.6 °F /  19.8 °C 56.7 °F /  13.7 °C 30.1in /  1017.6hPa SSO 8mph /  12.8km/h 13mph /  20.9km/h 68% 0in /  0.0mm
00:09 67.6 °F /  19.8 °C 56.7 °F /  13.7 °C 30.1in /  1017.6hPa SSO 8.1mph /  13km/h 12.7mph /  20.4km/h 68% 0in /  0.0mm
00:14 67.8 °F /  19.9 °C 56.7 °F /  13.7 °C 30.1in /  1017.5hPa SSO 7.7mph /  12.4km/h 14mph /  22.5km/h 67.4% 0in /  0.0mm
00:19 67.8 °F /  19.9 °C 56.5 °F /  13.6 °C 30.1in /  1017.5hPa SSO 7.6mph /  12.2km/h 12mph /  19.3km/h 67% 0in /  0.0mm
00:24 68.2 °F /  20.1 °C 56.7 °F /  13.7 °C 30.1in /  1017.5hPa SSO 8mph /  12.8km/h 15mph /  24.1km/h 66.7% 0in /  0.0mm
00:29 68.2 °F /  20.1 °C 56.5 °F /  13.6 °C 30.1in /  1017.5hPa SSO 8.1mph /  13km/h 15mph /  24.1km/h 66% 0in /  0.0mm
00:34 68.2 °F /  20.1 °C 56.5 °F /  13.6 °C 30.1in /  1017.5hPa SSO 8.4mph /  13.5km/h 13mph /  20.9km/h 66% 0in /  0.0mm
00:39 68.2 °F /  20.1 °C 56.5 °F /  13.6 °C 30.1in /  1017.6hPa SSO 8.5mph /  13.7km/h 13mph /  20.9km/h 66% 0in /  0.0mm
00:44 68 °F /  20 °C 56.1 °F /  13.4 °C 30.1in /  1017.6hPa SSO 7.6mph /  12.3km/h 13mph /  20.9km/h 66% 0in /  0.0mm
00:49 67.8 °F /  19.9 °C 56.5 °F /  13.6 °C 30.1in /  1017.6hPa SSO 7.4mph /  11.9km/h 12mph /  19.3km/h 66.9% 0in /  0.0mm
00:54 67.6 °F /  19.8 °C 56.3 °F /  13.5 °C 30.1in /  1017.7hPa SSO 6.5mph /  10.5km/h 10mph /  16.1km/h 67% 0in /  0.0mm
00:59 67.5 °F /  19.7 °C 56.3 °F /  13.5 °C 30.1in /  1017.7hPa SSO 6.2mph /  10km/h 10mph /  16.1km/h 67.6% 0in /  0.0mm
01:04 67.3 °F /  19.6 °C 56.5 °F /  13.6 °C 30.1in /  1017.7hPa SSO 6mph /  9.6km/h 10.4mph /  16.7km/h 68% 0in /  0.0mm
01:09 67.3 °F /  19.6 °C 56.3 °F /  13.5 °C 30.1in /  1017.7hPa SSO 5.9mph /  9.5km/h 9mph /  14.5km/h 68% 0in /  0.0mm
01:14 67.1 °F /  19.5 °C 56.1 °F /  13.4 °C 30.1in /  1017.7hPa SSO 5.5mph /  8.9km/h 9.2mph /  14.8km/h 68% 0in /  0.0mm
01:19 67.1 °F /  19.5 °C 56.1 °F /  13.4 °C 30.1in /  1017.7hPa Sur 5.4mph /  8.7km/h 9mph /  14.5km/h 68% 0in /  0.0mm
01:24 67.1 °F /  19.5 °C 56.1 °F /  13.4 °C 30.1in /  1017.7hPa SSO 5.3mph /  8.5km/h 8.1mph /  13km/h 68% 0in /  0.0mm
01:29 67.3 °F /  19.6 °C 56.3 °F /  13.5 °C 30.1in /  1017.7hPa SSO 5.2mph /  8.4km/h 9.2mph /  14.8km/h 68% 0in /  0.0mm
01:34 67.3 °F /  19.6 °C 56.5 °F /  13.6 °C 30.1in /  1017.7hPa SSO 5.3mph /  8.6km/h 9mph /  14.5km/h 68% 0in /  0.0mm
01:39 67.1 °F /  19.5 °C 56.3 °F /  13.5 °C 30.1in /  1017.8hPa Sur 5.4mph /  8.7km/h 8.5mph /  13.7km/h 68% 0in /  0.0mm
01:44 66.9 °F /  19.4 °C 56.1 °F /  13.4 °C 30.1in /  1017.8hPa SSO 5.4mph /  8.7km/h 10mph /  16.1km/h 68% 0in /  0.0mm
01:49 66.9 °F /  19.4 °C 55.9 °F /  13.3 °C 30.1in /  1017.8hPa SSO 5.4mph /  8.7km/h 10.4mph /  16.7km/h 68% 0in /  0.0mm
01:54 66.9 °F /  19.4 °C 55.9 °F /  13.3 °C 30.1in /  1017.9hPa SSO 5.8mph /  9.3km/h 10mph /  16.1km/h 68% 0in /  0.0mm
01:59 66.9 °F /  19.4 °C 55.9 °F /  13.3 °C 30.1in /  1017.9hPa SSO 5.9mph /  9.5km/h 9.2mph /  14.8km/h 68% 0in /  0.0mm
02:04 66.7 °F /  19.3 °C 56.1 °F /  13.4 °C 30.1in /  1017.9hPa SSO 5.3mph /  8.6km/h 9mph /  14.5km/h 68.9% 0in /  0.0mm
02:09 66.7 °F /  19.3 °C 56.1 °F /  13.4 °C 30.1in /  1018.1hPa SSO 5.2mph /  8.4km/h 9.7mph /  15.6km/h 69% 0in /  0.0mm
02:14 66.6 °F /  19.2 °C 56.1 °F /  13.4 °C 30.1in /  1018.1hPa SSO 5.2mph /  8.4km/h 10.4mph /  16.7km/h 69% 0in /  0.0mm
02:19 66.6 °F /  19.2 °C 56.1 °F /  13.4 °C 30.1in /  1018.1hPa SSO 5.2mph /  8.4km/h 10.4mph /  16.7km/h 69% 0in /  0.0mm
02:24 66.6 °F /  19.2 °C 56.1 °F /  13.4 °C 30.1in /  1018.1hPa SSO 6mph /  9.6km/h 10mph /  16.1km/h 69% 0in /  0.0mm
02:29 66.6 °F /  19.2 °C 56.1 °F /  13.4 °C 30.1in /  1018.1hPa SSO 6.2mph /  10km/h 10.4mph /  16.7km/h 69% 0in /  0.0mm
02:34 66.4 °F /  19.1 °C 55.9 °F /  13.3 °C 30.1in /  1018.1hPa SSO 6.3mph /  10.2km/h 10.4mph /  16.7km/h 69% 0in /  0.0mm
02:39 66.4 °F /  19.1 °C 55.9 °F /  13.3 °C 30.1in /  1018.2hPa SSO 6.4mph /  10.3km/h 10.4mph /  16.7km/h 69% 0in /  0.0mm
02:44 66.6 °F /  19.2 °C 56.1 °F /  13.4 °C 30.1in /  1018.2hPa SSO 6mph /  9.7km/h 11.4mph /  18.3km/h 69% 0in /  0.0mm
02:49 66.6 °F /  19.2 °C 56.1 °F /  13.4 °C 30.1in /  1018.2hPa SSO 5.9mph /  9.5km/h 12mph /  19.3km/h 69% 0in /  0.0mm
02:54 66.6 °F /  19.2 °C 56.1 °F /  13.4 °C 30.1in /  1018.3hPa SSO 5.9mph /  9.5km/h 10.4mph /  16.7km/h 69% 0in /  0.0mm
02:59 66.6 °F /  19.2 °C 56.1 °F /  13.4 °C 30.1in /  1018.3hPa SSO 5.9mph /  9.5km/h 10mph /  16.1km/h 69% 0in /  0.0mm
03:04 66.6 °F /  19.2 °C 56.1 °F /  13.4 °C 30.1in /  1018.3hPa SSO 5.9mph /  9.5km/h 10.4mph /  16.7km/h 69% 0in /  0.0mm
03:09 66.4 °F /  19.1 °C 55.9 °F /  13.3 °C 30.1in /  1018.3hPa SSO 5.9mph /  9.5km/h 10mph /  16.1km/h 69% 0in /  0.0mm
03:14 66.4 °F /  19.1 °C 55.9 °F /  13.3 °C 30.1in /  1018.2hPa SSO 6.2mph /  9.9km/h 9.2mph /  14.8km/h 69% 0in /  0.0mm
03:19 66.4 °F /  19.1 °C 55.9 °F /  13.3 °C 30.1in /  1018.2hPa SSO 6.2mph /  10km/h 9mph /  14.5km/h 69% 0in /  0.0mm
03:24 66.2 °F /  19 °C 55.8 °F /  13.2 °C 30.1in /  1018.2hPa Sur 6mph /  9.6km/h 9mph /  14.5km/h 69% 0in /  0.0mm
03:29 65.8 °F /  18.8 °C 55.9 °F /  13.3 °C 30.1in /  1018.2hPa Sur 5.9mph /  9.5km/h 8.7mph /  14km/h 69.9% 0in /  0.0mm
03:34 65.7 °F /  18.7 °C 55.8 °F /  13.2 °C 30.1in /  1018.2hPa Sur 5.9mph /  9.5km/h 9.2mph /  14.8km/h 70.4% 0in /  0.0mm
03:39 65.5 °F /  18.6 °C 55.8 °F /  13.2 °C 30.1in /  1018.2hPa Sur 5.9mph /  9.5km/h 9.2mph /  14.8km/h 71% 0in /  0.0mm
03:44 65.1 °F /  18.4 °C 55.8 °F /  13.2 °C 30.1in /  1018.2hPa Sur 5.5mph /  8.9km/h 9.2mph /  14.8km/h 71.4% 0in /  0.0mm
03:49 65.1 °F /  18.4 °C 55.9 °F /  13.3 °C 30.1in /  1018.2hPa SSO 5.4mph /  8.7km/h 8.1mph /  13km/h 72% 0in /  0.0mm
03:54 65.1 °F /  18.4 °C 55.9 °F /  13.3 °C 30.1in /  1018.2hPa SSO 5.3mph /  8.5km/h 8.1mph /  13km/h 72% 0in /  0.0mm
03:59 65.1 °F /  18.4 °C 55.9 °F /  13.3 °C 30.1in /  1018.2hPa SSO 5.2mph /  8.4km/h 8.1mph /  13km/h 72% 0in /  0.0mm
04:04 65.1 °F /  18.4 °C 55.9 °F /  13.3 °C 30.1in /  1018.2hPa SSO 4.8mph /  7.7km/h 8.1mph /  13km/h 72% 0in /  0.0mm
04:09 65.1 °F /  18.4 °C 55.9 °F /  13.3 °C 30.1in /  1018.2hPa SSO 4.7mph /  7.6km/h 8mph /  12.9km/h 72% 0in /  0.0mm
04:14 65.1 °F /  18.4 °C 55.9 °F /  13.3 °C 30.1in /  1018.1hPa SSO 4.4mph /  7.1km/h 7mph /  11.3km/h 72% 0in /  0.0mm
04:19 64.9 °F /  18.3 °C 55.8 °F /  13.2 °C 30.1in /  1018.1hPa SO 4.3mph /  6.9km/h 6mph /  9.7km/h 72% 0in /  0.0mm
04:24 65.1 °F /  18.4 °C 55.8 °F /  13.2 °C 30.1in /  1018.2hPa SSO 3.8mph /  6.1km/h 6mph /  9.7km/h 71.7% 0in /  0.0mm
04:29 65.1 °F /  18.4 °C 55.6 °F /  13.1 °C 30.1in /  1018.2hPa SO 3.6mph /  5.8km/h 7.4mph /  11.9km/h 71% 0in /  0.0mm
04:34 65.1 °F /  18.4 °C 55.4 °F /  13 °C 30.1in /  1018.2hPa SO 3.6mph /  5.8km/h 7mph /  11.3km/h 71% 0in /  0.0mm
04:39 64.9 °F /  18.3 °C 55.4 °F /  13 °C 30.1in /  1018.2hPa SSO 3.6mph /  5.8km/h 7.4mph /  11.9km/h 71% 0in /  0.0mm
04:44 64.9 °F /  18.3 °C 55.4 °F /  13 °C 30.1in /  1018.2hPa SO 4.4mph /  7.1km/h 7mph /  11.3km/h 71.1% 0in /  0.0mm
04:49 64.9 °F /  18.3 °C 55.6 °F /  13.1 °C 30.1in /  1018.2hPa SO 4.7mph /  7.6km/h 6mph /  9.7km/h 71.8% 0in /  0.0mm
04:54 64.8 °F /  18.2 °C 55.6 °F /  13.1 °C 30.1in /  1018.2hPa SO 3.9mph /  6.2km/h 5.4mph /  8.7km/h 72% 0in /  0.0mm
04:59 64.8 °F /  18.2 °C 55.6 °F /  13.1 °C 30.1in /  1018.1hPa SO 3.6mph /  5.8km/h 6mph /  9.7km/h 72% 0in /  0.0mm
05:04 64.8 °F /  18.2 °C 55.4 °F /  13 °C 30.1in /  1018.1hPa SO 3mph /  4.9km/h 5mph /  8km/h 72% 0in /  0.0mm
05:09 64.6 °F /  18.1 °C 55.2 °F /  12.9 °C 30.1in /  1018.2hPa SO 2.9mph /  4.7km/h 3mph /  4.8km/h 72% 0in /  0.0mm
05:14 64.2 °F /  17.9 °C 55.4 °F /  13 °C 30.1in /  1018.2hPa SO 0.7mph /  1.2km/h   73% 0in /  0.0mm
05:19 64 °F /  17.8 °C 55.2 °F /  12.9 °C 30.1in /  1018.2hPa Calm     73% 0in /  0.0mm
05:24 63.9 °F /  17.7 °C 55.2 °F /  12.9 °C 30.1in /  1018.3hPa Calm     73.3% 0in /  0.0mm
05:29 63.7 °F /  17.6 °C 55.2 °F /  12.9 °C 30.1in /  1018.3hPa Calm     74.1% 0in /  0.0mm
05:34 63.3 °F /  17.4 °C 55.4 °F /  13 °C 30.1in /  1018.3hPa Calm     75% 0in /  0.0mm
05:39 63.1 °F /  17.3 °C 55.2 °F /  12.9 °C 30.1in /  1018.3hPa Calm     75% 0in /  0.0mm
05:44 63.1 °F /  17.3 °C 55 °F /  12.8 °C 30.1in /  1018.3hPa Calm     75% 0in /  0.0mm
05:49 63.1 °F /  17.3 °C 55 °F /  12.8 °C 30.1in /  1018.3hPa Calm     75% 0in /  0.0mm
05:54 63.1 °F /  17.3 °C 55 °F /  12.8 °C 30.1in /  1018.3hPa Calm     75% 0in /  0.0mm
05:59 63.1 °F /  17.3 °C 55 °F /  12.8 °C 30.1in /  1018.3hPa Calm     75% 0in /  0.0mm
06:04 63.1 °F /  17.3 °C 55 °F /  12.8 °C 30.1in /  1018.3hPa Calm     75% 0in /  0.0mm
06:09 63.1 °F /  17.3 °C 55 °F /  12.8 °C 30.1in /  1018.3hPa Calm     75% 0in /  0.0mm
06:14 63 °F /  17.2 °C 54.9 °F /  12.7 °C 30.1in /  1018.2hPa Calm     75% 0in /  0.0mm
06:19 63 °F /  17.2 °C 54.9 °F /  12.7 °C 30.1in /  1018.2hPa Calm     75% 0in /  0.0mm
06:24 63 °F /  17.2 °C 54.9 °F /  12.7 °C 30.1in /  1018.3hPa Calm   5.8mph /  9.3km/h 74.9% 0in /  0.0mm
06:29 63.1 °F /  17.3 °C 54.7 °F /  12.6 °C 30.1in /  1018.3hPa Calm   6mph /  9.7km/h 74% 0in /  0.0mm
06:34 63.3 °F /  17.4 °C 54.7 °F /  12.6 °C 30.1in /  1018.3hPa SO 2.3mph /  3.7km/h 6.2mph /  10km/h 73.5% 0in /  0.0mm
06:39 63.7 °F /  17.6 °C 54.9 °F /  12.7 °C 30.1in /  1018.4hPa SO 3.1mph /  5km/h 6mph /  9.7km/h 73% 0in /  0.0mm
06:44 63.9 °F /  17.7 °C 54.7 °F /  12.6 °C 30.1in /  1018.4hPa SO 3.8mph /  6.1km/h 5mph /  8km/h 72.2% 0in /  0.0mm
06:49 64 °F /  17.8 °C 54.7 °F /  12.6 °C 30.1in /  1018.4hPa SSO 4mph /  6.5km/h 6.9mph /  11.1km/h 71.8% 0in /  0.0mm
06:54 64.2 °F /  17.9 °C 54.5 °F /  12.5 °C 30.1in /  1018.4hPa SSO 4mph /  6.5km/h 7.4mph /  11.9km/h 71% 0in /  0.0mm
06:59 64.2 °F /  17.9 °C 54.7 °F /  12.6 °C 30.1in /  1018.4hPa SSO 4mph /  6.5km/h 7mph /  11.3km/h 71% 0in /  0.0mm
07:04 64.2 °F /  17.9 °C 54.7 °F /  12.6 °C 30.1in /  1018.4hPa SSO 4mph /  6.5km/h 6.9mph /  11.1km/h 71% 0in /  0.0mm
07:09 64.2 °F /  17.9 °C 54.5 °F /  12.5 °C 30.1in /  1018.5hPa Sur 4mph /  6.5km/h 7mph /  11.3km/h 71% 0in /  0.0mm
07:14 64 °F /  17.8 °C 54.3 °F /  12.4 °C 30.1in /  1018.5hPa Sur 4.2mph /  6.8km/h 6.9mph /  11.1km/h 71% 0in /  0.0mm
07:19 63.9 °F /  17.7 °C 54.5 °F /  12.5 °C 30.1in /  1018.5hPa Sur 4.3mph /  6.9km/h 7mph /  11.3km/h 71.7% 0in /  0.0mm
07:24 63.7 °F /  17.6 °C 54.5 °F /  12.5 °C 30.1in /  1018.5hPa SSO 4.3mph /  6.9km/h 8.1mph /  13km/h 72% 0in /  0.0mm
07:29 63.7 °F /  17.6 °C 54.5 °F /  12.5 °C 30.1in /  1018.4hPa SSO 4.3mph /  6.9km/h 8mph /  12.9km/h 72% 0in /  0.0mm
07:34 63.9 °F /  17.7 °C 54.7 °F /  12.6 °C 30.1in /  1018.4hPa SSO 4.6mph /  7.4km/h 8.1mph /  13km/h 72% 0in /  0.0mm
07:39 63.9 °F /  17.7 °C 54.7 °F /  12.6 °C 30.1in /  1018.7hPa SO 4.7mph /  7.6km/h 7mph /  11.3km/h 71.8% 0in /  0.0mm
07:44 63.9 °F /  17.7 °C 54.3 °F /  12.4 °C 30.1in /  1018.7hPa SO 4.2mph /  6.7km/h 7mph /  11.3km/h 71.1% 0in /  0.0mm
07:49 63.9 °F /  17.7 °C 54.7 °F /  12.6 °C 30.1in /  1018.7hPa SO 4mph /  6.5km/h 6mph /  9.7km/h 71.8% 0in /  0.0mm
07:54 63.9 °F /  17.7 °C 54.7 °F /  12.6 °C 30.1in /  1018.9hPa SO 3.4mph /  5.4km/h 5.2mph /  8.4km/h 72% 0in /  0.0mm
07:59 63.9 °F /  17.7 °C 54.7 °F /  12.6 °C 30.1in /  1018.9hPa SO 3.1mph /  5km/h 5.8mph /  9.3km/h 72% 0in /  0.0mm
08:04 63.9 °F /  17.7 °C 54.5 °F /  12.5 °C 30.1in /  1018.9hPa SO 3.5mph /  5.6km/h 6.9mph /  11.1km/h 71.6% 0in /  0.0mm
08:09 64 °F /  17.8 °C 54.3 °F /  12.4 °C 30.1in /  1019.2hPa SO 3.6mph /  5.8km/h 7.4mph /  11.9km/h 71% 0in /  0.0mm
08:14 64 °F /  17.8 °C 54.3 °F /  12.4 °C 30.1in /  1019.2hPa SO 4.1mph /  6.6km/h 8.5mph /  13.7km/h 71% 0in /  0.0mm
08:19 64 °F /  17.8 °C 54.3 °F /  12.4 °C 30.1in /  1019.2hPa SO 4.3mph /  6.9km/h 9mph /  14.5km/h 71% 0in /  0.0mm
08:24 64.2 °F /  17.9 °C 54.5 °F /  12.5 °C 30.1in /  1019.5hPa SO 4.3mph /  6.9km/h 7mph /  11.3km/h 71% 0in /  0.0mm
08:29 64.2 °F /  17.9 °C 54.3 °F /  12.4 °C 30.1in /  1019.5hPa SSO 4.3mph /  6.9km/h 7mph /  11.3km/h 70.6% 0in /  0.0mm
08:34 64.2 °F /  17.9 °C 54.1 °F /  12.3 °C 30.1in /  1019.5hPa SSO 3.8mph /  6.1km/h 6.2mph /  10km/h 70% 0in /  0.0mm
08:39 64.2 °F /  17.9 °C 54.3 °F /  12.4 °C 30.1in /  1019.6hPa SSO 3.6mph /  5.8km/h 6.9mph /  11.1km/h 70% 0in /  0.0mm
08:44 64.4 °F /  18 °C 54.3 °F /  12.4 °C 30.1in /  1019.6hPa SSO 4.1mph /  6.6km/h 7mph /  11.3km/h 70% 0in /  0.0mm
08:49 64.4 °F /  18 °C 54.5 °F /  12.5 °C 30.1in /  1019.6hPa SO 4.3mph /  6.9km/h 7mph /  11.3km/h 70% 0in /  0.0mm
08:54 64.6 °F /  18.1 °C 54.7 °F /  12.6 °C 30.1in /  1019.7hPa SSO 4.1mph /  6.6km/h 6.2mph /  10km/h 70% 0in /  0.0mm
08:59 64.9 °F /  18.3 °C 54.5 °F /  12.5 °C 30.1in /  1019.7hPa SSO 4mph /  6.5km/h 7.4mph /  11.9km/h 69.4% 0in /  0.0mm
09:04 65.1 °F /  18.4 °C 54.5 °F /  12.5 °C 30.1in /  1019.7hPa SSO 4mph /  6.5km/h 8.1mph /  13km/h 68.7% 0in /  0.0mm
09:09 65.3 °F /  18.5 °C 54.7 °F /  12.6 °C 30.1in /  1019.8hPa SSO 4mph /  6.5km/h 8mph /  12.9km/h 68.7% 0in /  0.0mm
09:14 65.7 °F /  18.7 °C 54.9 °F /  12.7 °C 30.1in /  1019.8hPa SSO 4.2mph /  6.8km/h 6mph /  9.7km/h 68.1% 0in /  0.0mm
09:19 66 °F /  18.9 °C 54.9 °F /  12.7 °C 30.1in /  1019.8hPa SSO 4.3mph /  6.9km/h 6.9mph /  11.1km/h 67.4% 0in /  0.0mm
09:24 66.4 °F /  19.1 °C 55 °F /  12.8 °C 30.1in /  1019.9hPa SSO 4.3mph /  6.9km/h 7mph /  11.3km/h 67% 0in /  0.0mm
09:29 66.7 °F /  19.3 °C 55 °F /  12.8 °C 30.1in /  1019.9hPa SSO 4.3mph /  6.9km/h 8.1mph /  13km/h 66.3% 0in /  0.0mm
09:34 66.9 °F /  19.4 °C 55.2 °F /  12.9 °C 30.1in /  1019.9hPa SSO 4.3mph /  6.9km/h 8mph /  12.9km/h 66% 0in /  0.0mm
09:39 67.3 °F /  19.6 °C 55.2 °F /  12.9 °C 30.1in /  1020.0hPa SSO 4.3mph /  6.9km/h 7mph /  11.3km/h 65.6% 0in /  0.0mm
09:44 67.3 °F /  19.6 °C 55.4 °F /  13 °C 30.1in /  1020.0hPa Sur 4.1mph /  6.6km/h 6.2mph /  10km/h 65.7% 0in /  0.0mm
09:49 67.1 °F /  19.5 °C 55.4 °F /  13 °C 30.1in /  1020.0hPa SSO 4mph /  6.5km/h 6mph /  9.7km/h 66% 0in /  0.0mm
09:54 67.5 °F /  19.7 °C 55.6 °F /  13.1 °C 30.1in /  1020.2hPa SSO 3.4mph /  5.4km/h 6.2mph /  10km/h 66% 0in /  0.0mm
09:59 67.8 °F /  19.9 °C 55.8 °F /  13.2 °C 30.1in /  1020.2hPa SSO 3.1mph /  5km/h 6.2mph /  10km/h 65.3% 0in /  0.0mm
10:04 68.2 °F /  20.1 °C 55.9 °F /  13.3 °C 30.1in /  1020.2hPa SSO 3.5mph /  5.6km/h 6.9mph /  11.1km/h 65% 0in /  0.0mm
10:09 68.5 °F /  20.3 °C 55.9 °F /  13.3 °C 30.1in /  1020.2hPa SO 3.6mph /  5.8km/h 7mph /  11.3km/h 64.2% 0in /  0.0mm
10:14 68.7 °F /  20.4 °C 56.1 °F /  13.4 °C 30.1in /  1020.2hPa SO 3.9mph /  6.3km/h 7mph /  11.3km/h 64% 0in /  0.0mm
10:19 69.3 °F /  20.7 °C 56.1 °F /  13.4 °C 30.1in /  1020.2hPa SSO 4mph /  6.5km/h 9.2mph /  14.8km/h 63.1% 0in /  0.0mm
10:24 69.4 °F /  20.8 °C 56.1 °F /  13.4 °C 30.1in /  1020.2hPa SSO 4.2mph /  6.8km/h 9mph /  14.5km/h 63% 0in /  0.0mm
10:29 69.8 °F /  21 °C 56.3 °F /  13.5 °C 30.1in /  1020.2hPa SSO 4.3mph /  6.9km/h 6.9mph /  11.1km/h 62.3% 0in /  0.0mm
10:34 70.2 °F /  21.2 °C 56.3 °F /  13.5 °C 30.1in /  1020.2hPa Sur 4.1mph /  6.6km/h 8.1mph /  13km/h 61.7% 0in /  0.0mm
10:39 70.3 °F /  21.3 °C 56.5 °F /  13.6 °C 30.1in /  1020.2hPa Sur 4mph /  6.5km/h 8mph /  12.9km/h 61.4% 0in /  0.0mm
10:44 70.7 °F /  21.5 °C 56.5 °F /  13.6 °C 30.1in /  1020.2hPa SSO 4.5mph /  7.3km/h 7.4mph /  11.9km/h 60.9% 0in /  0.0mm
10:49 70.9 °F /  21.6 °C 56.5 °F /  13.6 °C 30.1in /  1020.2hPa Sur 4.7mph /  7.6km/h 8.5mph /  13.7km/h 60.2% 0in /  0.0mm
10:54 71.2 °F /  21.8 °C 56.7 °F /  13.7 °C 30.1in /  1020.2hPa Sur 5.2mph /  8.4km/h 9mph /  14.5km/h 60% 0in /  0.0mm
10:59 71.6 °F /  22 °C 56.7 °F /  13.7 °C 30.1in /  1020.2hPa SSO 5.4mph /  8.7km/h 10.7mph /  17.2km/h 59.1% 0in /  0.0mm
11:04 72.1 °F /  22.3 °C 56.1 °F /  13.4 °C 30.1in /  1020.2hPa OSO 4.8mph /  7.8km/h 11mph /  17.7km/h 57.2% 0in /  0.0mm
11:09 72.5 °F /  22.5 °C 55.9 °F /  13.3 °C 30.1in /  1020.2hPa SO 4.7mph /  7.6km/h 12.7mph /  20.4km/h 55.9% 0in /  0.0mm
11:14 72.7 °F /  22.6 °C 55.6 °F /  13.1 °C 30.1in /  1020.2hPa OSO 6.8mph /  10.9km/h 14mph /  22.5km/h 55% 0in /  0.0mm
11:19 73 °F /  22.8 °C 55.8 °F /  13.2 °C 30.1in /  1020.2hPa SO 7.4mph /  11.9km/h 14mph /  22.5km/h 55% 0in /  0.0mm
11:24 73.2 °F /  22.9 °C 55.8 °F /  13.2 °C 30.1in /  1020.2hPa OSO 7.5mph /  12.1km/h 14mph /  22.5km/h 54.4% 0in /  0.0mm
11:29 73.2 °F /  22.9 °C 55.9 °F /  13.3 °C 30.1in /  1020.1hPa OSO 7.6mph /  12.2km/h 13mph /  20.9km/h 54.8% 0in /  0.0mm
11:34 73.6 °F /  23.1 °C 56.1 °F /  13.4 °C 30.1in /  1020.1hPa OSO 6.7mph /  10.8km/h 12.7mph /  20.4km/h 54.6% 0in /  0.0mm
11:39 73.8 °F /  23.2 °C 56.1 °F /  13.4 °C 30.1in /  1020.1hPa OSO 6.4mph /  10.3km/h 13mph /  20.9km/h 54% 0in /  0.0mm
11:44 73.9 °F /  23.3 °C 56.1 °F /  13.4 °C 30.1in /  1019.9hPa OSO 7.1mph /  11.5km/h 13mph /  20.9km/h 54% 0in /  0.0mm
11:49 74.3 °F /  23.5 °C 56.1 °F /  13.4 °C 30.1in /  1019.9hPa OSO 7.4mph /  11.9km/h 13mph /  20.9km/h 53.1% 0in /  0.0mm
11:54 74.7 °F /  23.7 °C 55.6 °F /  13.1 °C 30.1in /  1019.9hPa Oeste 6.6mph /  10.7km/h 17.3mph /  27.8km/h 51.6% 0in /  0.0mm
11:59 74.7 °F /  23.7 °C 55.4 °F /  13 °C 30.1in /  1019.8hPa Oeste 6.4mph /  10.3km/h 17.3mph /  27.8km/h 51% 0in /  0.0mm
12:04 74.8 °F /  23.8 °C 55.6 °F /  13.1 °C 30.1in /  1019.8hPa Oeste 9mph /  14.5km/h 17mph /  27.4km/h 51% 0in /  0.0mm
12:09 75 °F /  23.9 °C 55.8 °F /  13.2 °C 30.1in /  1019.8hPa Oeste 9.7mph /  15.6km/h 16.1mph /  25.9km/h 51% 0in /  0.0mm
12:14 75.4 °F /  24.1 °C 55.4 °F /  13 °C 30.1in /  1019.7hPa OSO 8.4mph /  13.6km/h 19.2mph /  30.9km/h 50% 0in /  0.0mm
12:19 75.4 °F /  24.1 °C 55 °F /  12.8 °C 30.1in /  1019.7hPa OSO 8.1mph /  13km/h 20mph /  32.2km/h 49.3% 0in /  0.0mm
12:24 75.6 °F /  24.2 °C 55.2 °F /  12.9 °C 30.1in /  1019.7hPa OSO 9.3mph /  15km/h 21.3mph /  34.3km/h 49.5% 0in /  0.0mm
12:29 75.6 °F /  24.2 °C 55.2 °F /  12.9 °C 30.1in /  1019.5hPa OSO 9.7mph /  15.6km/h 21mph /  33.8km/h 49.5% 0in /  0.0mm
12:34 75.6 °F /  24.2 °C 55.6 °F /  13.1 °C 30.1in /  1019.5hPa OSO 10.4mph /  16.8km/h 20mph /  32.2km/h 50% 0in /  0.0mm
12:39 75.7 °F /  24.3 °C 55.4 °F /  13 °C 30.1in /  1019.5hPa OSO 10.7mph /  17.2km/h 17.3mph /  27.8km/h 49.5% 0in /  0.0mm
12:44 75.7 °F /  24.3 °C 55.4 °F /  13 °C 30.1in /  1019.3hPa OSO 10.1mph /  16.3km/h 17mph /  27.4km/h 49.3% 0in /  0.0mm
12:49 75.9 °F /  24.4 °C 55.4 °F /  13 °C 30.1in /  1019.3hPa OSO 10mph /  16.1km/h 16.1mph /  25.9km/h 49.1% 0in /  0.0mm
12:54 75.9 °F /  24.4 °C 55.4 °F /  13 °C 30.1in /  1019.3hPa OSO 9mph /  14.5km/h 16.3mph /  26.2km/h 49% 0in /  0.0mm
12:59 75.9 °F /  24.4 °C 55.6 °F /  13.1 °C 30.1in /  1019.1hPa OSO 8.7mph /  14km/h 16.3mph /  26.2km/h 49.2% 0in /  0.0mm
13:04 76.3 °F /  24.6 °C 55.8 °F /  13.2 °C 30.1in /  1019.1hPa OSO 8.7mph /  14km/h 16mph /  25.7km/h 49.1% 0in /  0.0mm
13:09 76.3 °F /  24.6 °C 55.8 °F /  13.2 °C 30.1in /  1019.1hPa OSO 8.7mph /  14km/h 15mph /  24.1km/h 49% 0in /  0.0mm
13:14 76.5 °F /  24.7 °C 55.4 °F /  13 °C 30.1in /  1018.9hPa Oeste 8.6mph /  13.8km/h 18.4mph /  29.6km/h 48.1% 0in /  0.0mm
13:19 76.6 °F /  24.8 °C 55.4 °F /  13 °C 30.1in /  1018.9hPa OSO 8.5mph /  13.7km/h 18mph /  29km/h 47.7% 0in /  0.0mm
13:24 76.8 °F /  24.9 °C 55.2 °F /  12.9 °C 30.1in /  1018.9hPa OSO 8.5mph /  13.7km/h 17mph /  27.4km/h 47.3% 0in /  0.0mm
13:29 77 °F /  25 °C 55.2 °F /  12.9 °C 30.1in /  1018.9hPa OSO 8.5mph /  13.7km/h 16.1mph /  25.9km/h 47% 0in /  0.0mm
13:34 76.8 °F /  24.9 °C 55.4 °F /  13 °C 30.1in /  1018.9hPa SO 8.6mph /  13.9km/h 16mph /  25.7km/h 47.5% 0in /  0.0mm
13:39 77 °F /  25 °C 55.4 °F /  13 °C 30.1in /  1018.9hPa OSO 8.7mph /  14km/h 13mph /  20.9km/h 47.1% 0in /  0.0mm
13:44 77.4 °F /  25.2 °C 55.2 °F /  12.9 °C 30.1in /  1018.6hPa SO 7.3mph /  11.8km/h 17mph /  27.4km/h 46.4% 0in /  0.0mm
13:49 77.5 °F /  25.3 °C 54.7 °F /  12.6 °C 30.1in /  1018.6hPa OSO 6.9mph /  11.1km/h 17.3mph /  27.8km/h 45.3% 0in /  0.0mm
13:54 77.5 °F /  25.3 °C 54.9 °F /  12.7 °C 30.1in /  1018.6hPa SO 8.6mph /  13.9km/h 16mph /  25.7km/h 45.7% 0in /  0.0mm
13:59 77.9 °F /  25.5 °C 54.9 °F /  12.7 °C 30.1in /  1018.5hPa OSO 9.2mph /  14.8km/h 13.8mph /  22.2km/h 45% 0in /  0.0mm
14:04 78.3 °F /  25.7 °C 54.9 °F /  12.7 °C 30.1in /  1018.5hPa Oeste 7.8mph /  12.5km/h 14mph /  22.5km/h 44.8% 0in /  0.0mm
14:09 78.3 °F /  25.7 °C 54.7 °F /  12.6 °C 30.1in /  1018.5hPa OSO 7.4mph /  11.9km/h 11mph /  17.7km/h 44% 0in /  0.0mm
14:14 78.4 °F /  25.8 °C 54.7 °F /  12.6 °C 30.1in /  1018.3hPa Oeste 5.3mph /  8.6km/h 11mph /  17.7km/h 44% 0in /  0.0mm
14:19 78.4 °F /  25.8 °C 55.2 °F /  12.9 °C 30.1in /  1018.3hPa ONO 4.7mph /  7.6km/h 11mph /  17.7km/h 45% 0in /  0.0mm
14:24 78.4 °F /  25.8 °C 55.4 °F /  13 °C 30.1in /  1018.3hPa Oeste 5.1mph /  8.2km/h 10mph /  16.1km/h 45% 0in /  0.0mm
14:29 78.6 °F /  25.9 °C 54.9 °F /  12.7 °C 30.1in /  1018.3hPa Oeste 5.2mph /  8.4km/h 9.2mph /  14.8km/h 44.1% 0in /  0.0mm
14:34 78.6 °F /  25.9 °C 54.9 °F /  12.7 °C 30.1in /  1018.3hPa OSO 4.5mph /  7.3km/h 11.8mph /  19km/h 43.9% 0in /  0.0mm
14:39 78.4 °F /  25.8 °C 55.4 °F /  13 °C 30.1in /  1018.3hPa OSO 4.3mph /  6.9km/h 12mph /  19.3km/h 44.9% 0in /  0.0mm
14:44 78.6 °F /  25.9 °C 55.4 °F /  13 °C 30.1in /  1018.1hPa OSO 5.7mph /  9.2km/h 12mph /  19.3km/h 45% 0in /  0.0mm
14:49 78.6 °F /  25.9 °C 55.6 °F /  13.1 °C 30.1in /  1018.1hPa SO 6.2mph /  10km/h 12mph /  19.3km/h 45% 0in /  0.0mm
14:54 78.6 °F /  25.9 °C 55.6 °F /  13.1 °C 30.1in /  1018.1hPa SO 6mph /  9.6km/h 12mph /  19.3km/h 45% 0in /  0.0mm
14:59 78.8 °F /  26 °C 55.4 °F /  13 °C 30.1in /  1018.0hPa ONO 5.9mph /  9.5km/h 9.7mph /  15.6km/h 44.8% 0in /  0.0mm
15:04 79 °F /  26.1 °C 55.2 °F /  12.9 °C 30.1in /  1018.0hPa Oeste 5.3mph /  8.6km/h 11.2mph /  18km/h 44% 0in /  0.0mm
15:09 79.2 °F /  26.2 °C 55.2 °F /  12.9 °C 30.1in /  1018.1hPa Oeste 5.2mph /  8.4km/h 12mph /  19.3km/h 43.8% 0in /  0.0mm
15:14 79.3 °F /  26.3 °C 55 °F /  12.8 °C 30.1in /  1018.1hPa OSO 5.3mph /  8.6km/h 12mph /  19.3km/h 43.1% 0in /  0.0mm
15:19 79.3 °F /  26.3 °C 54.5 °F /  12.5 °C 30.1in /  1018.1hPa Oeste 5.4mph /  8.7km/h 13.8mph /  22.2km/h 42.3% 0in /  0.0mm
15:24 79.3 °F /  26.3 °C 54.7 °F /  12.6 °C 30.1in /  1018.1hPa Oeste 6.5mph /  10.5km/h 15mph /  24.1km/h 42.7% 0in /  0.0mm
15:29 79.2 °F /  26.2 °C 54.5 °F /  12.5 °C 30.1in /  1018.0hPa OSO 6.9mph /  11.1km/h 15mph /  24.1km/h 42.7% 0in /  0.0mm
15:34 79.3 °F /  26.3 °C 55 °F /  12.8 °C 30.1in /  1018.0hPa Oeste 6.9mph /  11.1km/h 10.7mph /  17.2km/h 42.9% 0in /  0.0mm
15:39 79.7 °F /  26.5 °C 55.2 °F /  12.9 °C 30.1in /  1018.0hPa OSO 6.9mph /  11.1km/h 11.5mph /  18.5km/h 43% 0in /  0.0mm
15:44 79.9 °F /  26.6 °C 55.2 °F /  12.9 °C 30.1in /  1017.9hPa OSO 5.7mph /  9.2km/h 13mph /  20.9km/h 43% 0in /  0.0mm
15:49 79.7 °F /  26.5 °C 55.2 °F /  12.9 °C 30.1in /  1017.9hPa Oeste 5.4mph /  8.7km/h 13mph /  20.9km/h 43% 0in /  0.0mm
15:54 79.7 °F /  26.5 °C 55.6 °F /  13.1 °C 30.1in /  1018.0hPa Oeste 5.4mph /  8.7km/h 10.7mph /  17.2km/h 43.7% 0in /  0.0mm
15:59 79.5 °F /  26.4 °C 55.8 °F /  13.2 °C 30.1in /  1018.0hPa Oeste 5.4mph /  8.7km/h 11mph /  17.7km/h 43.9% 0in /  0.0mm
16:04 79.3 °F /  26.3 °C 55.9 °F /  13.3 °C 30.1in /  1018.0hPa ONO 5.4mph /  8.7km/h 10mph /  16.1km/h 44.4% 0in /  0.0mm
16:09 79.3 °F /  26.3 °C 55.8 °F /  13.2 °C 30.1in /  1018.0hPa Oeste 5.4mph /  8.7km/h 10.4mph /  16.7km/h 44.5% 0in /  0.0mm
16:14 79.2 °F /  26.2 °C 55.9 °F /  13.3 °C 30.1in /  1018.0hPa ONO 5.8mph /  9.3km/h 10mph /  16.1km/h 44.9% 0in /  0.0mm
16:19 79.2 °F /  26.2 °C 55.9 °F /  13.3 °C 30.1in /  1018.0hPa ONO 5.9mph /  9.5km/h 9.2mph /  14.8km/h 45% 0in /  0.0mm
16:24 79.2 °F /  26.2 °C 55.9 °F /  13.3 °C 30.1in /  1018.0hPa Oeste 5mph /  8km/h 8.7mph /  14km/h 45% 0in /  0.0mm
16:29 79.3 °F /  26.3 °C 56.1 °F /  13.4 °C 30.1in /  1017.9hPa ONO 4.7mph /  7.6km/h 9.2mph /  14.8km/h 45% 0in /  0.0mm
16:34 79.5 °F /  26.4 °C 55.9 °F /  13.3 °C 30.1in /  1017.9hPa Oeste 5.1mph /  8.2km/h 8.1mph /  13km/h 44.5% 0in /  0.0mm
16:39 79.7 °F /  26.5 °C 55.9 °F /  13.3 °C 30.1in /  1018.0hPa ONO 5.2mph /  8.4km/h 8mph /  12.9km/h 44.2% 0in /  0.0mm
16:44 79.7 °F /  26.5 °C 56.1 °F /  13.4 °C 30.1in /  1018.0hPa ONO 4.3mph /  6.9km/h 7.4mph /  11.9km/h 44.4% 0in /  0.0mm
16:49 79.5 °F /  26.4 °C 55.8 °F /  13.2 °C 30.1in /  1018.0hPa ONO 4mph /  6.5km/h 7mph /  11.3km/h 44.2% 0in /  0.0mm
16:54 79.5 °F /  26.4 °C 55.8 °F /  13.2 °C 30.1in /  1018.0hPa ONO 4mph /  6.5km/h 8.1mph /  13km/h 44.1% 0in /  0.0mm
16:59 79.5 °F /  26.4 °C 55.8 °F /  13.2 °C 30.1in /  1018.0hPa ONO 4mph /  6.5km/h 8.1mph /  13km/h 44% 0in /  0.0mm
17:04 79.5 °F /  26.4 °C 55.6 °F /  13.1 °C 30.1in /  1018.0hPa ONO 4.5mph /  7.3km/h 8.1mph /  13km/h 44% 0in /  0.0mm
17:09 79.5 °F /  26.4 °C 55.6 °F /  13.1 °C 30.1in /  1018.0hPa NO 4.7mph /  7.6km/h 8.1mph /  13km/h 44% 0in /  0.0mm
17:14 79.3 °F /  26.3 °C 56.1 °F /  13.4 °C 30.1in /  1018.0hPa NO 4.7mph /  7.6km/h 7mph /  11.3km/h 44.8% 0in /  0.0mm
17:19 79.3 °F /  26.3 °C 56.1 °F /  13.4 °C 30.1in /  1018.0hPa NO 4.7mph /  7.6km/h 6mph /  9.7km/h 45% 0in /  0.0mm
17:24 79.3 °F /  26.3 °C 55.6 °F /  13.1 °C 30.1in /  1018.1hPa ONO 3.9mph /  6.2km/h 6.2mph /  10km/h 44.2% 0in /  0.0mm
17:29 79.3 °F /  26.3 °C 55.8 °F /  13.2 °C 30.1in /  1018.1hPa ONO 3.6mph /  5.8km/h 6mph /  9.7km/h 44.3% 0in /  0.0mm
17:34 79.3 °F /  26.3 °C 55.9 °F /  13.3 °C 30.1in /  1018.1hPa ONO 3.2mph /  5.2km/h 5mph /  8km/h 44.5% 0in /  0.0mm
17:39 79.5 °F /  26.4 °C 55.8 °F /  13.2 °C 30.1in /  1018.1hPa ONO 3.1mph /  5km/h 4.6mph /  7.4km/h 44.3% 0in /  0.0mm
17:44 79.3 °F /  26.3 °C 55.8 °F /  13.2 °C 30.1in /  1018.0hPa NO 2.6mph /  4.2km/h 5.2mph /  8.4km/h 44.3% 0in /  0.0mm
17:49 79.2 °F /  26.2 °C 55.9 °F /  13.3 °C 30.1in /  1018.0hPa North 2.4mph /  3.9km/h 5mph /  8km/h 45% 0in /  0.0mm
17:54 78.6 °F /  25.9 °C 56.1 °F /  13.4 °C 30.1in /  1018.2hPa NNE 2.8mph /  4.5km/h 5.2mph /  8.4km/h 46% 0in /  0.0mm
17:59 78.3 °F /  25.7 °C 55.8 °F /  13.2 °C 30.1in /  1018.2hPa NE 2.9mph /  4.7km/h 5.2mph /  8.4km/h 46% 0in /  0.0mm
18:04 78.1 °F /  25.6 °C 55.8 °F /  13.2 °C 30.1in /  1018.2hPa NE 3.4mph /  5.5km/h 5.2mph /  8.4km/h 46.4% 0in /  0.0mm
18:09 77.7 °F /  25.4 °C 55.6 °F /  13.1 °C 30.1in /  1018.3hPa NNE 3.6mph /  5.8km/h 5mph /  8km/h 46.5% 0in /  0.0mm
18:14 77.5 °F /  25.3 °C 55.8 °F /  13.2 °C 30.1in /  1018.3hPa NNE 3mph /  4.9km/h 5.2mph /  8.4km/h 47% 0in /  0.0mm
18:19 77.4 °F /  25.2 °C 55.6 °F /  13.1 °C 30.1in /  1018.3hPa NNE 2.9mph /  4.7km/h 5.2mph /  8.4km/h 47% 0in /  0.0mm
18:24 77.2 °F /  25.1 °C 55.4 °F /  13 °C 30.1in /  1018.5hPa NNE 3mph /  4.9km/h 5mph /  8km/h 47% 0in /  0.0mm
18:29 77 °F /  25 °C 55.2 °F /  12.9 °C 30.1in /  1018.5hPa NE 3.1mph /  5km/h 5mph /  8km/h 47% 0in /  0.0mm
18:34 76.8 °F /  24.9 °C 55 °F /  12.8 °C 30.1in /  1018.5hPa NE 2.9mph /  4.7km/h 5mph /  8km/h 47% 0in /  0.0mm
18:39 76.8 °F /  24.9 °C 55.4 °F /  13 °C 30.1in /  1018.6hPa NE 2.9mph /  4.7km/h 5mph /  8km/h 47.8% 0in /  0.0mm
18:44 76.5 °F /  24.7 °C 56.5 °F /  13.6 °C 30.1in /  1018.6hPa Este 3mph /  4.9km/h 5mph /  8km/h 50% 0in /  0.0mm
18:49 75.9 °F /  24.4 °C 57.4 °F /  14.1 °C 30.1in /  1018.6hPa Este 3.1mph /  5km/h 5.8mph /  9.3km/h 52.8% 0in /  0.0mm
18:54 75 °F /  23.9 °C 57.6 °F /  14.2 °C 30.1in /  1018.7hPa ESE 3.1mph /  5km/h 6mph /  9.7km/h 54.8% 0in /  0.0mm
18:59 74.3 °F /  23.5 °C 57.7 °F /  14.3 °C 30.1in /  1018.7hPa ESE 3.1mph /  5km/h 6mph /  9.7km/h 56.3% 0in /  0.0mm
19:04 73.9 °F /  23.3 °C 57.7 °F /  14.3 °C 30.1in /  1018.7hPa ESE 3.1mph /  5km/h 5mph /  8km/h 57% 0in /  0.0mm
19:09 73.6 °F /  23.1 °C 57.9 °F /  14.4 °C 30.1in /  1018.8hPa SE 3.1mph /  5km/h 5.2mph /  8.4km/h 57.9% 0in /  0.0mm
19:14 73.2 °F /  22.9 °C 57.6 °F /  14.2 °C 30.1in /  1018.8hPa SSE 3.1mph /  5km/h 5.2mph /  8.4km/h 58.1% 0in /  0.0mm
19:19 72.9 °F /  22.7 °C 57.6 °F /  14.2 °C 30.1in /  1018.8hPa Sur 3.1mph /  5km/h 6.9mph /  11.1km/h 58.7% 0in /  0.0mm
19:24 72.9 °F /  22.7 °C 57.6 °F /  14.2 °C 30.1in /  1019.0hPa SSO 3.8mph /  6.1km/h 7mph /  11.3km/h 59% 0in /  0.0mm
19:29 72.9 °F /  22.7 °C 57.7 °F /  14.3 °C 30.1in /  1019.0hPa SSO 4mph /  6.5km/h 7mph /  11.3km/h 59% 0in /  0.0mm
19:34 73 °F /  22.8 °C 58.1 °F /  14.5 °C 30.1in /  1019.0hPa SO 4.2mph /  6.8km/h 9.2mph /  14.8km/h 59.7% 0in /  0.0mm
19:39 73 °F /  22.8 °C 58.5 °F /  14.7 °C 30.1in /  1019.2hPa SSO 4.3mph /  6.9km/h 10.4mph /  16.7km/h 60.4% 0in /  0.0mm
19:44 73 °F /  22.8 °C 58.8 °F /  14.9 °C 30.1in /  1019.2hPa SSO 5.2mph /  8.3km/h 10mph /  16.1km/h 61% 0in /  0.0mm
19:49 72.9 °F /  22.7 °C 59 °F /  15 °C 30.1in /  1019.2hPa SSO 5.4mph /  8.7km/h 11.5mph /  18.5km/h 61.9% 0in /  0.0mm
19:54 72.7 °F /  22.6 °C 59.2 °F /  15.1 °C 30.1in /  1019.3hPa SSO 4.9mph /  7.9km/h 12mph /  19.3km/h 62.7% 0in /  0.0mm
19:59 72.3 °F /  22.4 °C 59.4 °F /  15.2 °C 30.1in /  1019.3hPa SSO 4.7mph /  7.6km/h 10mph /  16.1km/h 63.8% 0in /  0.0mm
20:04 72.1 °F /  22.3 °C 59.4 °F /  15.2 °C 30.1in /  1019.3hPa SSO 5.7mph /  9.1km/h 10.4mph /  16.7km/h 64.3% 0in /  0.0mm
20:09 72 °F /  22.2 °C 59.5 °F /  15.3 °C 30.1in /  1019.4hPa SSO 5.9mph /  9.5km/h 10.4mph /  16.7km/h 65% 0in /  0.0mm
20:14 71.6 °F /  22 °C 59.4 °F /  15.2 °C 30.1in /  1019.4hPa SSO 6.2mph /  9.9km/h 11.5mph /  18.5km/h 65.7% 0in /  0.0mm
20:19 71.2 °F /  21.8 °C 59.4 °F /  15.2 °C 30.1in /  1019.4hPa SO 6.2mph /  10km/h 12mph /  19.3km/h 66% 0in /  0.0mm
20:24 71.2 °F /  21.8 °C 59.4 °F /  15.2 °C 30.1in /  1019.5hPa SO 6mph /  9.6km/h 12.7mph /  20.4km/h 66.1% 0in /  0.0mm
20:29 71.1 °F /  21.7 °C 59.5 °F /  15.3 °C 30.1in /  1019.5hPa SSO 5.9mph /  9.5km/h 13mph /  20.9km/h 67% 0in /  0.0mm
20:34 71.1 °F /  21.7 °C 59.5 °F /  15.3 °C 30.1in /  1019.5hPa SSO 5.9mph /  9.5km/h 10mph /  16.1km/h 67% 0in /  0.0mm
20:39 70.9 °F /  21.6 °C 59.4 °F /  15.2 °C 30.1in /  1019.6hPa SSO 5.9mph /  9.5km/h 11.8mph /  19km/h 67% 0in /  0.0mm
20:44 70.9 °F /  21.6 °C 59.4 °F /  15.2 °C 30.1in /  1019.6hPa SSO 5.5mph /  8.9km/h 12mph /  19.3km/h 67% 0in /  0.0mm
20:49 70.7 °F /  21.5 °C 59.4 °F /  15.2 °C 30.1in /  1019.6hPa SO 5.4mph /  8.7km/h 10.7mph /  17.2km/h 67% 0in /  0.0mm
20:54 70.7 °F /  21.5 °C 59.2 °F /  15.1 °C 30.1in /  1019.8hPa SO 5.4mph /  8.7km/h 11mph /  17.7km/h 67% 0in /  0.0mm
20:59 70.5 °F /  21.4 °C 59 °F /  15 °C 30.1in /  1019.8hPa SO 5.4mph /  8.7km/h 11mph /  17.7km/h 67% 0in /  0.0mm
21:04 70.3 °F /  21.3 °C 59.4 °F /  15.2 °C 30.1in /  1019.8hPa SO 4.8mph /  7.8km/h 7mph /  11.3km/h 68% 0in /  0.0mm
21:09 70.3 °F /  21.3 °C 59.2 °F /  15.1 °C 30.1in /  1019.8hPa SSO 4.7mph /  7.6km/h 6mph /  9.7km/h 68% 0in /  0.0mm
21:14 70.2 °F /  21.2 °C 59.2 °F /  15.1 °C 30.1in /  1019.8hPa SO 3.9mph /  6.2km/h 6mph /  9.7km/h 68% 0in /  0.0mm
21:19 70.2 °F /  21.2 °C 59.2 °F /  15.1 °C 30.1in /  1019.8hPa SSO 3.6mph /  5.8km/h 5.9mph /  9.5km/h 68% 0in /  0.0mm
21:24 70.2 °F /  21.2 °C 59 °F /  15 °C 30.1in /  1019.9hPa SSO 3.2mph /  5.2km/h 6.9mph /  11.1km/h 68% 0in /  0.0mm
21:29 70 °F /  21.1 °C 58.8 °F /  14.9 °C 30.1in /  1019.9hPa SSO 3.1mph /  5km/h 7mph /  11.3km/h 68% 0in /  0.0mm
21:34 70 °F /  21.1 °C 59 °F /  15 °C 30.1in /  1019.9hPa Sur 3.5mph /  5.6km/h 6mph /  9.7km/h 68.5% 0in /  0.0mm
21:39 70 °F /  21.1 °C 59.2 °F /  15.1 °C 30.1in /  1020.1hPa Sur 3.6mph /  5.8km/h 5.9mph /  9.5km/h 69% 0in /  0.0mm
21:44 69.8 °F /  21 °C 59.2 °F /  15.1 °C 30.1in /  1020.1hPa Sur 3.9mph /  6.3km/h 6mph /  9.7km/h 69% 0in /  0.0mm
21:49 69.6 °F /  20.9 °C 59 °F /  15 °C 30.1in /  1020.1hPa Sur 4mph /  6.5km/h 6.2mph /  10km/h 69% 0in /  0.0mm
21:54 69.4 °F /  20.8 °C 59 °F /  15 °C 30.1in /  1020.3hPa SSO 4mph /  6.5km/h 6.9mph /  11.1km/h 69.6% 0in /  0.0mm
21:59 69.3 °F /  20.7 °C 59.2 °F /  15.1 °C 30.1in /  1020.3hPa Sur 4mph /  6.5km/h 7mph /  11.3km/h 70% 0in /  0.0mm
22:04 69.3 °F /  20.7 °C 59 °F /  15 °C 30.1in /  1020.3hPa SSO 4.2mph /  6.8km/h 6mph /  9.7km/h 70% 0in /  0.0mm
22:09 69.1 °F /  20.6 °C 58.8 °F /  14.9 °C 30.1in /  1020.4hPa SSO 4.3mph /  6.9km/h 6.2mph /  10km/h 70% 0in /  0.0mm
22:14 69.1 °F /  20.6 °C 59 °F /  15 °C 30.1in /  1020.4hPa Sur 3.8mph /  6.1km/h 6mph /  9.7km/h 70.4% 0in /  0.0mm
22:19 69.1 °F /  20.6 °C 59.4 °F /  15.2 °C 30.1in /  1020.4hPa Sur 3.6mph /  5.8km/h 5mph /  8km/h 71% 0in /  0.0mm
22:24 69.1 °F /  20.6 °C 59.2 °F /  15.1 °C 30.1in /  1020.4hPa Sur 3.2mph /  5.2km/h 5.8mph /  9.3km/h 71% 0in /  0.0mm
22:29 68.9 °F /  20.5 °C 59 °F /  15 °C 30.1in /  1020.3hPa Sur 3.1mph /  5km/h 6mph /  9.7km/h 71% 0in /  0.0mm
22:34 68.7 °F /  20.4 °C 58.8 °F /  14.9 °C 30.1in /  1020.3hPa Sur 3.1mph /  5km/h 5.8mph /  9.3km/h 71% 0in /  0.0mm
22:39 68.7 °F /  20.4 °C 58.8 °F /  14.9 °C 30.1in /  1020.4hPa SSE 3.1mph /  5km/h 6mph /  9.7km/h 71% 0in /  0.0mm
22:44 68.5 °F /  20.3 °C 58.8 °F /  14.9 °C 30.1in /  1020.4hPa SSE 3.5mph /  5.6km/h 6.2mph /  10km/h 71% 0in /  0.0mm
22:49 68.5 °F /  20.3 °C 58.8 °F /  14.9 °C 30.1in /  1020.4hPa SSE 3.6mph /  5.8km/h 6mph /  9.7km/h 71.1% 0in /  0.0mm
22:54 68.5 °F /  20.3 °C 59.2 °F /  15.1 °C 30.1in /  1020.4hPa Sur 3.6mph /  5.8km/h 6.2mph /  10km/h 72% 0in /  0.0mm
22:59 68.4 °F /  20.2 °C 59 °F /  15 °C 30.1in /  1020.3hPa Sur 3.6mph /  5.8km/h 6.2mph /  10km/h 72% 0in /  0.0mm
23:04 68.2 °F /  20.1 °C 58.8 °F /  14.9 °C 30.1in /  1020.3hPa Sur 3.9mph /  6.3km/h 6mph /  9.7km/h 72% 0in /  0.0mm
23:09 68.2 °F /  20.1 °C 58.8 °F /  14.9 °C 30.1in /  1020.3hPa SSE 4mph /  6.5km/h 6mph /  9.7km/h 72.2% 0in /  0.0mm
23:14 68 °F /  20 °C 59 °F /  15 °C 30.1in /  1020.3hPa Sur 4mph /  6.5km/h 6mph /  9.7km/h 73% 0in /  0.0mm
23:19 68 °F /  20 °C 59 °F /  15 °C 30.1in /  1020.3hPa SSE 4mph /  6.5km/h 5.9mph /  9.5km/h 73% 0in /  0.0mm
23:24 67.8 °F /  19.9 °C 58.8 °F /  14.9 °C 30.1in /  1020.3hPa SSE 4mph /  6.5km/h 6.9mph /  11.1km/h 73% 0in /  0.0mm
23:29 67.8 °F /  19.9 °C 59 °F /  15 °C 30.1in /  1020.3hPa Sur 4mph /  6.5km/h 7mph /  11.3km/h 73.5% 0in /  0.0mm
23:34 67.8 °F /  19.9 °C 59.2 °F /  15.1 °C 30.1in /  1020.3hPa Sur 4.2mph /  6.8km/h 7mph /  11.3km/h 74% 0in /  0.0mm
23:39 67.8 °F /  19.9 °C 59.2 °F /  15.1 °C 30.1in /  1020.3hPa Sur 4.3mph /  6.9km/h 7.4mph /  11.9km/h 74% 0in /  0.0mm
23:44 67.8 °F /  19.9 °C 59.2 °F /  15.1 °C 30.1in /  1020.3hPa SSO 4.6mph /  7.4km/h 7mph /  11.3km/h 74% 0in /  0.0mm
23:49 67.8 °F /  19.9 °C 59.2 °F /  15.1 °C 30.1in /  1020.3hPa SSO 4.7mph /  7.6km/h 6mph /  9.7km/h 74% 0in /  0.0mm
23:54 67.8 °F /  19.9 °C 59.2 °F /  15.1 °C 30.1in /  1020.4hPa SSO 4.2mph /  6.7km/h 6.2mph /  10km/h 74% 0in /  0.0mm
23:59 67.8 °F /  19.9 °C 59.2 °F /  15.1 °C 30.1in /  1020.4hPa SSO 4mph /  6.5km/h 6mph /  9.7km/h 74% 0in /  0.0mm
Murcia-Puente Tocinos, España
Compliments of Weather Underground - 3 mb

La estación de MeteoMurcia.com, publica sus datos en los siguientes proyectos:

Weather Underground PWS IMURCIAP2 Meteoclimatic www.awekas.at

W3Counter
Web Analytics